Terminal Aerodrome Forecast
Issued by NWS

Home | Current Version | Previous Version | Text Only | Print | Product List | Glossary On
Versions: 1 2 3 4 5 6 7 8 9 10 11 12 13 14 15 16 17 18 19 20 21 22 23 24 25 26 27 28 29 30 31 32 33 34 35 36 37 38 39 40 41 42 43 44 45 46 47 48 49 50
000
FTUS45 KGJT 222345
TAFTEX
TAF
KTEX 222345Z 2300/2324 28015G30KT 1 1/2SM -SN BR SCT009 BKN015
      OVC025
      TEMPO 2300/2303 1/4SM SN FZFG VV004
     FM230300 29008KT 4SM -SN BR SCT015 OVC030
     FM231300 28010KT P6SM VCSH SCT025 BKN035
     FM231800 27008KT P6SM SCT050=

USA.gov is the U.S. government's official web portal to all federal, state and local government web resources and services.